createdAt,value
2022-12-09T00:01:22.079Z,34.23
2022-12-09T00:03:50.931Z,37.80
2022-12-09T00:06:21.308Z,39.90
2022-12-09T00:08:50.075Z,36.57
2022-12-09T00:11:20.305Z,35.10
2022-12-09T00:13:50.178Z,37.83
2022-12-09T00:16:18.701Z,36.47
2022-12-09T00:18:46.974Z,37.13
2022-12-09T00:21:16.460Z,35.97
2022-12-09T00:23:44.515Z,35.77
2022-12-09T00:26:12.911Z,37.20
2022-12-09T00:28:42.674Z,38.47
2022-12-09T00:31:14.141Z,36.83
2022-12-09T00:33:42.532Z,38.27
2022-12-09T00:36:14.590Z,36.60
2022-12-09T00:38:43.452Z,40.93
2022-12-09T00:41:12.649Z,37.80
2022-12-09T00:43:43.263Z,38.67
2022-12-09T00:46:12.135Z,38.53
2022-12-09T00:48:41.327Z,38.43
2022-12-09T00:51:12.024Z,41.60
2022-12-09T00:53:40.194Z,38.83
2022-12-09T00:56:08.431Z,38.13
2022-12-09T00:58:36.862Z,39.20
2022-12-09T01:01:06.611Z,38.37
2022-12-09T01:03:37.648Z,38.23
2022-12-09T01:06:12.222Z,39.07
2022-12-09T01:08:42.447Z,38.73
2022-12-09T01:11:13.424Z,37.37
2022-12-09T01:13:41.836Z,38.90
2022-12-09T01:16:17.298Z,37.87
2022-12-09T01:18:46.927Z,39.27
2022-12-09T01:21:15.796Z,40.43
2022-12-09T01:23:44.124Z,38.53
2022-12-09T01:26:12.889Z,37.83
2022-12-09T01:28:41.294Z,38.97
2022-12-09T01:31:12.185Z,37.37
2022-12-09T01:33:44.067Z,37.23
2022-12-09T01:36:16.283Z,35.50
2022-12-09T01:38:44.820Z,35.17
2022-12-09T01:41:13.352Z,35.80
2022-12-09T01:43:42.773Z,36.97
2022-12-09T01:46:11.387Z,36.33
2022-12-09T01:48:43.427Z,35.17
2022-12-09T01:51:16.888Z,35.70
2022-12-09T01:53:49.139Z,34.73
2022-12-09T01:56:21.240Z,33.60
2022-12-09T01:58:50.376Z,35.00
2022-12-09T02:01:20.004Z,35.00
2022-12-09T02:03:49.774Z,33.80
2022-12-09T02:06:18.631Z,34.30
2022-12-09T02:08:49.647Z,35.07
2022-12-09T02:11:28.436Z,34.23
2022-12-09T02:14:02.973Z,32.43
2022-12-09T02:16:37.260Z,32.93
2022-12-09T02:19:19.353Z,32.03
2022-12-09T02:21:54.973Z,33.27
2022-12-09T02:24:32.216Z,34.67
2022-12-09T02:27:07.474Z,33.67
2022-12-09T02:29:54.665Z,33.87
2022-12-09T02:32:52.782Z,34.67
2022-12-09T02:35:27.984Z,36.03
2022-12-09T02:38:01.881Z,36.97
2022-12-09T02:40:35.363Z,36.10
2022-12-09T02:43:07.436Z,36.80
2022-12-09T02:45:38.813Z,35.60
2022-12-09T02:48:11.065Z,36.90
2022-12-09T02:50:43.582Z,34.77
2022-12-09T02:53:14.824Z,35.00
2022-12-09T02:55:46.393Z,36.50
2022-12-09T02:58:14.420Z,38.13
2022-12-09T03:00:43.200Z,38.90
2022-12-09T03:03:19.239Z,39.63
2022-12-09T03:05:57.695Z,40.90
2022-12-09T03:08:32.608Z,42.33
2022-12-09T03:11:04.504Z,40.27
2022-12-09T03:13:41.130Z,42.03
2022-12-09T03:16:16.283Z,43.20
2022-12-09T03:18:49.263Z,43.20
2022-12-09T03:21:22.568Z,42.63
2022-12-09T03:23:56.155Z,44.37
2022-12-09T03:26:28.600Z,42.57
2022-12-09T03:28:59.836Z,43.07
2022-12-09T03:31:31.924Z,45.60
2022-12-09T03:34:04.683Z,45.30
2022-12-09T03:36:38.075Z,44.33
2022-12-09T03:39:09.251Z,44.60
2022-12-09T03:41:39.807Z,44.80
2022-12-09T03:44:13.910Z,43.93
2022-12-09T03:46:42.663Z,44.37
2022-12-09T03:49:11.097Z,44.97
2022-12-09T03:51:46.208Z,44.63
2022-12-09T03:54:18.352Z,47.17
2022-12-09T03:56:48.730Z,49.33
2022-12-09T03:59:17.395Z,48.67
2022-12-09T04:01:47.349Z,49.27
2022-12-09T04:04:16.928Z,46.73
2022-12-09T04:06:46.495Z,49.00
2022-12-09T04:09:14.877Z,51.97
2022-12-09T04:11:43.021Z,50.17
2022-12-09T04:14:15.558Z,50.97
2022-12-09T04:16:45.321Z,53.87
2022-12-09T04:19:13.738Z,49.37
2022-12-09T04:21:42.041Z,53.77
2022-12-09T04:24:11.575Z,52.40
2022-12-09T04:26:39.725Z,53.30
2022-12-09T04:29:08.265Z,54.20
2022-12-09T04:31:36.636Z,53.20
2022-12-09T04:34:09.195Z,53.73
2022-12-09T04:36:38.132Z,51.80
2022-12-09T04:39:06.326Z,52.97
2022-12-09T04:41:36.794Z,50.17
2022-12-09T04:44:05.701Z,50.40
2022-12-09T04:46:34.211Z,51.77
2022-12-09T04:49:02.410Z,49.37
2022-12-09T04:51:35.787Z,50.87
2022-12-09T04:54:07.813Z,51.73
2022-12-09T04:56:37.485Z,47.70
2022-12-09T04:59:06.487Z,49.13
2022-12-09T05:01:34.846Z,49.27
2022-12-09T05:04:04.178Z,49.47
2022-12-09T05:06:32.796Z,44.47
2022-12-09T05:09:01.193Z,43.87
2022-12-09T05:11:29.748Z,44.00
2022-12-09T05:13:59.705Z,44.23
2022-12-09T05:16:28.185Z,42.00
2022-12-09T05:18:56.500Z,47.27
2022-12-09T05:21:25.280Z,44.23
2022-12-09T05:23:53.598Z,41.00
2022-12-09T05:26:23.888Z,43.10
2022-12-09T05:28:52.611Z,44.83
2022-12-09T05:31:24.552Z,45.60
2022-12-09T05:33:53.365Z,47.83
2022-12-09T05:36:24.335Z,47.80
2022-12-09T05:38:53.337Z,48.83
2022-12-09T05:41:22.913Z,47.43
2022-12-09T05:43:51.319Z,47.87
2022-12-09T05:46:19.903Z,48.23
2022-12-09T05:48:49.941Z,50.07
2022-12-09T05:51:24.623Z,49.17
2022-12-09T05:53:53.836Z,49.83
2022-12-09T05:56:24.573Z,49.03
2022-12-09T05:58:54.038Z,48.20
2022-12-09T06:01:22.898Z,50.70
2022-12-09T06:03:54.181Z,50.00
2022-12-09T06:06:26.746Z,49.90
2022-12-09T06:08:58.086Z,54.07
2022-12-09T06:11:27.884Z,53.23
2022-12-09T06:13:56.777Z,53.83
2022-12-09T06:16:25.840Z,55.10
2022-12-09T06:18:55.998Z,55.73
2022-12-09T06:21:24.616Z,55.87
2022-12-09T06:23:52.897Z,52.70
2022-12-09T06:26:23.185Z,53.20
2022-12-09T06:28:51.604Z,56.70
2022-12-09T06:31:20.526Z,58.57
2022-12-09T06:33:58.378Z,57.83
2022-12-09T06:36:30.240Z,55.20
2022-12-09T06:39:04.508Z,56.83
2022-12-09T06:41:36.018Z,59.37
2022-12-09T06:44:05.455Z,60.43
2022-12-09T06:46:33.775Z,57.70
2022-12-09T06:49:02.028Z,59.63
2022-12-09T06:51:32.029Z,57.50
2022-12-09T06:54:00.415Z,57.30
2022-12-09T06:56:28.914Z,61.30
2022-12-09T06:58:57.411Z,58.27
2022-12-09T07:01:26.859Z,59.97
2022-12-09T07:03:57.192Z,60.73
2022-12-09T07:06:30.136Z,61.50
2022-12-09T07:09:02.081Z,60.30
2022-12-09T07:11:31.066Z,60.50
2022-12-09T07:13:59.735Z,61.13
2022-12-09T07:16:28.451Z,61.47
2022-12-09T07:18:56.657Z,61.20
2022-12-09T07:21:25.642Z,63.93
2022-12-09T07:23:54.113Z,65.80
2022-12-09T07:26:24.896Z,66.73
2022-12-09T07:28:53.142Z,66.60
2022-12-09T07:31:23.458Z,67.43
2022-12-09T07:33:53.408Z,69.57
2022-12-09T07:36:23.191Z,74.67
2022-12-09T07:38:55.872Z,72.13
2022-12-09T07:41:25.939Z,70.90
2022-12-09T07:43:54.440Z,69.57
2022-12-09T07:46:24.336Z,69.70
2022-12-09T07:48:52.782Z,73.37
2022-12-09T07:51:21.669Z,75.80
2022-12-09T07:53:50.336Z,74.63
2022-12-09T07:56:19.437Z,72.57
2022-12-09T07:58:51.383Z,79.83
2022-12-09T08:01:21.731Z,75.17
2022-12-09T08:03:51.435Z,70.67
2022-12-09T08:06:21.625Z,70.23
2022-12-09T08:08:50.423Z,68.30
2022-12-09T08:11:21.514Z,68.57
2022-12-09T08:13:51.846Z,70.13
2022-12-09T08:16:21.804Z,65.27
2022-12-09T08:18:51.800Z,66.63
2022-12-09T08:21:22.628Z,64.63
2022-12-09T08:23:52.136Z,65.20
2022-12-09T08:26:22.512Z,62.70
2022-12-09T08:28:53.210Z,65.93
2022-12-09T08:31:23.993Z,65.53
2022-12-09T08:33:53.954Z,62.13
2022-12-09T08:36:24.276Z,59.40
2022-12-09T08:38:53.827Z,60.10
2022-12-09T08:41:35.363Z,60.13
2022-12-09T08:44:07.196Z,58.23
2022-12-09T08:46:37.255Z,56.50
2022-12-09T08:49:06.520Z,52.03
2022-12-09T08:51:36.017Z,53.67
2022-12-09T08:54:06.065Z,56.77
2022-12-09T08:56:35.388Z,59.57
2022-12-09T08:59:05.494Z,58.17
2022-12-09T09:01:36.025Z,60.30
2022-12-09T09:04:09.566Z,61.10
2022-12-09T09:06:39.520Z,60.93
2022-12-09T09:09:09.039Z,58.97
2022-12-09T09:11:37.928Z,57.90
2022-12-09T09:14:09.537Z,53.37
2022-12-09T09:16:40.847Z,51.33
2022-12-09T09:19:09.932Z,52.57
2022-12-09T09:21:38.537Z,53.27
2022-12-09T09:24:11.390Z,51.83
2022-12-09T09:26:41.922Z,52.97
2022-12-09T09:29:13.552Z,53.43
2022-12-09T09:31:42.232Z,53.13
2022-12-09T09:34:11.316Z,54.17
2022-12-09T09:36:41.573Z,54.97
2022-12-09T09:39:10.513Z,55.87
2022-12-09T09:41:46.795Z,53.90
2022-12-09T09:44:23.280Z,57.00
2022-12-09T09:46:53.618Z,54.77
2022-12-09T09:49:30.009Z,53.60
2022-12-09T09:51:58.620Z,52.50
2022-12-09T09:54:27.431Z,52.43
2022-12-09T09:57:02.104Z,53.80
2022-12-09T09:59:40.491Z,53.63
2022-12-09T10:02:19.726Z,51.50
2022-12-09T10:05:03.297Z,46.67
2022-12-09T10:07:36.778Z,45.97
2022-12-09T10:10:15.392Z,46.70
2022-12-09T10:13:00.590Z,44.23
2022-12-09T10:15:44.077Z,41.03
2022-12-09T10:18:19.192Z,39.53
2022-12-09T10:20:48.826Z,35.00
2022-12-09T10:23:18.164Z,35.23
2022-12-09T10:25:50.190Z,32.37
2022-12-09T10:28:22.385Z,31.37
2022-12-09T10:30:53.561Z,29.70
2022-12-09T10:33:28.440Z,26.30
2022-12-09T10:35:57.046Z,22.33
2022-12-09T10:38:26.821Z,22.27
2022-12-09T10:41:07.949Z,20.83
2022-12-09T10:43:42.382Z,22.50
2022-12-09T10:46:18.446Z,26.17
2022-12-09T10:48:56.299Z,27.23
2022-12-09T10:51:27.264Z,27.83
2022-12-09T10:53:59.051Z,27.57
2022-12-09T10:56:30.809Z,27.27
2022-12-09T10:59:24.852Z,26.50
2022-12-09T11:01:55.993Z,26.70
2022-12-09T11:04:27.653Z,23.40
2022-12-09T11:07:00.810Z,21.23
2022-12-09T11:09:32.190Z,21.30
2022-12-09T11:12:02.085Z,20.43
2022-12-09T11:14:35.856Z,21.47
2022-12-09T11:17:16.773Z,22.60
2022-12-09T11:19:48.960Z,22.00
2022-12-09T11:22:32.693Z,23.53
2022-12-09T11:25:24.749Z,22.27
2022-12-09T11:27:56.157Z,22.97
2022-12-09T11:30:27.139Z,23.03
2022-12-09T11:33:01.400Z,22.63
2022-12-09T11:35:33.425Z,21.63
2022-12-09T11:38:18.177Z,22.13
2022-12-09T11:41:01.563Z,23.53
2022-12-09T11:43:40.721Z,22.10
2022-12-09T11:46:23.635Z,21.60
2022-12-09T11:48:59.455Z,22.03
2022-12-09T11:51:30.947Z,20.90
2022-12-09T11:54:03.870Z,20.37
2022-12-09T11:56:33.715Z,20.10
2022-12-09T11:59:04.435Z,19.87
2022-12-09T12:01:44.540Z,18.73
2022-12-09T12:04:17.572Z,17.80
2022-12-09T12:06:50.410Z,13.57
2022-12-09T12:09:23.860Z,14.60
2022-12-09T12:12:01.797Z,13.47
2022-12-09T12:14:31.876Z,13.07
2022-12-09T12:17:09.673Z,16.17
2022-12-09T12:19:41.520Z,19.07
2022-12-09T12:22:28.793Z,19.80
2022-12-09T12:25:38.480Z,20.23
2022-12-09T12:28:22.602Z,19.80
2022-12-09T12:30:56.433Z,19.03
2022-12-09T12:36:47.387Z,19.23
2022-12-09T12:39:28.899Z,18.93
2022-12-09T12:42:03.532Z,18.67
2022-12-09T12:45:08.806Z,18.47
2022-12-09T12:47:45.744Z,21.73
2022-12-09T12:50:39.727Z,18.67
2022-12-09T12:53:18.704Z,19.00
2022-12-09T12:55:54.189Z,18.17
2022-12-09T12:58:37.077Z,18.13
2022-12-09T13:01:09.520Z,19.30
2022-12-09T13:03:51.665Z,17.90
2022-12-09T13:06:23.355Z,15.73
2022-12-09T13:09:02.692Z,15.03
2022-12-09T13:11:34.544Z,14.83
2022-12-09T13:14:07.765Z,13.50
2022-12-09T13:16:39.585Z,13.10
2022-12-09T13:19:12.546Z,13.27
2022-12-09T13:21:41.298Z,13.27
2022-12-09T13:24:22.030Z,11.00
2022-12-09T13:26:56.779Z,11.03
2022-12-09T13:29:35.682Z,10.53
2022-12-09T13:32:14.513Z,11.10
2022-12-09T13:34:45.683Z,11.17
2022-12-09T13:37:32.765Z,11.73
2022-12-09T13:40:03.371Z,11.97
2022-12-09T13:42:56.500Z,12.47
2022-12-09T13:45:34.743Z,12.53
2022-12-09T13:48:11.919Z,13.33
2022-12-09T13:50:45.607Z,12.83
2022-12-09T13:53:27.084Z,14.47
2022-12-09T13:55:59.256Z,14.47
2022-12-09T13:58:47.206Z,15.93
2022-12-09T14:01:23.933Z,16.93
2022-12-09T14:04:01.552Z,18.10
2022-12-09T14:06:34.499Z,17.83
2022-12-09T14:09:07.897Z,19.20
2022-12-09T14:11:49.178Z,20.50
2022-12-09T14:14:56.551Z,22.67
2022-12-09T14:17:59.019Z,22.37
2022-12-09T14:20:33.064Z,22.80
2022-12-09T14:23:19.661Z,23.53
2022-12-09T14:26:04.054Z,21.67
2022-12-09T14:29:00.790Z,22.80
2022-12-09T14:32:01.369Z,22.73
2022-12-09T14:34:39.134Z,21.87
2022-12-09T14:37:42.406Z,21.90
2022-12-09T14:40:28.023Z,17.37
2022-12-09T14:43:04.417Z,17.63
2022-12-09T14:45:43.873Z,16.07
2022-12-09T14:48:16.226Z,15.90
2022-12-09T14:50:44.411Z,15.03
2022-12-09T14:53:23.980Z,15.67
2022-12-09T14:55:52.675Z,15.60
2022-12-09T14:58:24.439Z,15.90
2022-12-09T15:01:02.313Z,15.73
2022-12-09T15:03:34.349Z,15.90
2022-12-09T15:06:14.103Z,15.37
2022-12-09T15:08:42.909Z,14.87
2022-12-09T15:11:14.970Z,16.10
2022-12-09T15:13:45.129Z,16.80
2022-12-09T15:16:17.373Z,15.97
2022-12-09T15:18:46.871Z,17.13
2022-12-09T15:21:28.250Z,17.40
2022-12-09T15:23:56.956Z,17.40
2022-12-09T15:26:33.775Z,17.87
2022-12-09T15:29:05.276Z,18.33
2022-12-09T15:31:35.738Z,17.97
2022-12-09T15:34:12.922Z,18.90
2022-12-09T15:36:43.517Z,21.30
2022-12-09T15:39:19.665Z,21.10
2022-12-09T15:42:10.301Z,22.10
2022-12-09T15:44:45.028Z,22.10
2022-12-09T15:47:19.781Z,22.73
2022-12-09T15:49:52.902Z,25.10
2022-12-09T15:52:26.637Z,24.33
2022-12-09T15:54:55.219Z,25.33
2022-12-09T15:57:24.529Z,26.37
2022-12-09T15:59:57.041Z,28.20
2022-12-09T16:02:30.977Z,29.00
2022-12-09T16:05:02.963Z,29.17
2022-12-09T16:07:32.880Z,30.43
2022-12-09T16:10:03.433Z,31.73
2022-12-09T16:12:34.542Z,32.27
2022-12-09T16:15:03.274Z,35.20
2022-12-09T16:17:37.768Z,42.23
2022-12-09T16:20:24.339Z,41.87
2022-12-09T16:22:52.536Z,45.60
2022-12-09T16:25:23.815Z,44.73
2022-12-09T16:27:59.249Z,45.40
2022-12-09T16:30:29.708Z,50.03
2022-12-09T16:33:00.781Z,50.50
2022-12-09T16:35:33.941Z,52.27
2022-12-09T16:38:16.494Z,54.90
2022-12-09T16:41:07.812Z,52.20
2022-12-09T16:43:36.272Z,52.00
2022-12-09T16:46:39.546Z,53.67
2022-12-09T16:49:09.164Z,49.17
2022-12-09T16:51:39.123Z,45.53
2022-12-09T16:54:19.608Z,49.73
2022-12-09T16:56:48.955Z,46.60
2022-12-09T16:59:16.996Z,46.90
2022-12-09T17:01:45.236Z,48.50
2022-12-09T17:04:18.113Z,50.83
2022-12-09T17:06:46.362Z,53.67
2022-12-09T17:09:14.570Z,55.50
2022-12-09T17:11:48.542Z,57.43
2022-12-09T17:14:18.909Z,55.83
2022-12-09T17:16:46.964Z,56.50
2022-12-09T17:19:16.465Z,55.30
2022-12-09T17:21:44.605Z,58.40
2022-12-09T17:24:12.782Z,51.27
2022-12-09T17:26:40.812Z,52.33
2022-12-09T17:29:08.893Z,63.73
2022-12-09T17:31:36.912Z,52.47
2022-12-09T17:34:04.983Z,50.23
2022-12-09T17:36:34.320Z,55.67
2022-12-09T17:39:03.419Z,52.57
2022-12-09T17:41:31.451Z,51.90
2022-12-09T17:44:01.112Z,50.50
2022-12-09T17:46:29.511Z,50.20
2022-12-09T17:48:57.994Z,59.30
2022-12-09T17:51:28.648Z,58.87
2022-12-09T17:54:00.820Z,55.37
2022-12-09T17:56:28.834Z,55.50
2022-12-09T17:58:59.102Z,53.80
2022-12-09T18:01:27.689Z,55.30
2022-12-09T18:04:00.441Z,54.40
2022-12-09T18:06:34.494Z,53.87
2022-12-09T18:09:06.192Z,55.90
2022-12-09T18:11:34.648Z,56.17
2022-12-09T18:14:02.695Z,55.10
2022-12-09T18:16:30.964Z,54.43
2022-12-09T18:19:03.361Z,56.03
2022-12-09T18:21:31.664Z,52.50
2022-12-09T18:23:59.610Z,52.97
2022-12-09T18:26:32.977Z,53.37
2022-12-09T18:29:03.442Z,53.33
2022-12-09T18:31:31.587Z,51.93
2022-12-09T18:33:59.684Z,51.97
2022-12-09T18:36:29.498Z,51.67
2022-12-09T18:38:59.443Z,49.00
2022-12-09T18:41:30.789Z,49.27
2022-12-09T18:44:01.806Z,47.73
2022-12-09T18:46:31.435Z,48.20
2022-12-09T18:49:00.836Z,47.30
2022-12-09T18:51:30.146Z,47.00
2022-12-09T18:53:59.023Z,47.40
2022-12-09T18:56:28.956Z,47.60
2022-12-09T18:59:06.386Z,47.73
2022-12-09T19:01:39.377Z,48.13
2022-12-09T19:04:09.820Z,45.33
2022-12-09T19:06:40.099Z,45.43
2022-12-09T19:09:10.018Z,45.40
2022-12-09T19:11:41.061Z,44.13
2022-12-09T19:14:10.049Z,45.00
2022-12-09T19:16:38.947Z,43.63
2022-12-09T19:19:10.000Z,42.93
2022-12-09T19:21:39.835Z,43.10
2022-12-09T19:24:08.869Z,42.10
2022-12-09T19:26:37.561Z,42.53
2022-12-09T19:29:08.891Z,41.73
2022-12-09T19:31:38.721Z,41.67
2022-12-09T19:34:08.607Z,42.57
2022-12-09T19:36:36.842Z,42.03
2022-12-09T19:39:08.335Z,40.93
2022-12-09T19:41:37.060Z,39.93
2022-12-09T19:44:06.729Z,40.17
2022-12-09T19:46:35.329Z,39.23
2022-12-09T19:49:03.763Z,39.30
2022-12-09T19:51:32.264Z,38.87
2022-12-09T19:54:02.255Z,39.67
2022-12-09T19:56:31.201Z,38.50
2022-12-09T19:59:00.510Z,38.47
2022-12-09T20:01:31.921Z,38.60
2022-12-09T20:04:19.110Z,38.87
2022-12-09T20:06:51.957Z,40.33
2022-12-09T20:09:24.120Z,38.83
2022-12-09T20:11:52.830Z,41.07
2022-12-09T20:14:21.410Z,40.77
2022-12-09T20:16:50.842Z,40.70
2022-12-09T20:19:19.838Z,42.40
2022-12-09T20:21:48.883Z,41.27
2022-12-09T20:24:17.082Z,42.60
2022-12-09T20:26:45.402Z,42.47
2022-12-09T20:29:13.678Z,42.60
2022-12-09T20:31:43.644Z,41.47
2022-12-09T20:34:16.198Z,41.73
2022-12-09T20:36:46.458Z,41.53
2022-12-09T20:39:17.903Z,42.73
2022-12-09T20:41:46.863Z,41.73
2022-12-09T20:44:15.826Z,42.53
2022-12-09T20:46:47.549Z,41.47
2022-12-09T20:49:17.135Z,42.83
2022-12-09T20:51:47.061Z,41.30
2022-12-09T20:54:15.230Z,43.10
2022-12-09T20:56:43.530Z,41.67
2022-12-09T20:59:13.681Z,43.23
2022-12-09T21:01:43.702Z,42.53
2022-12-09T21:04:11.801Z,42.47
2022-12-09T21:06:42.741Z,41.87
2022-12-09T21:09:14.852Z,41.50
2022-12-09T21:11:43.058Z,42.63
2022-12-09T21:14:12.243Z,42.60
2022-12-09T21:16:42.780Z,42.23
2022-12-09T21:19:13.431Z,41.90
2022-12-09T21:21:46.739Z,41.90
2022-12-09T21:24:16.166Z,41.17
2022-12-09T21:26:44.515Z,39.93
2022-12-09T21:29:13.383Z,41.40
2022-12-09T21:31:42.926Z,41.67
2022-12-09T21:34:12.028Z,39.77
2022-12-09T21:36:43.896Z,39.57
2022-12-09T21:39:13.307Z,38.47
2022-12-09T21:41:41.979Z,39.30
2022-12-09T21:44:14.223Z,38.33
2022-12-09T21:46:42.482Z,37.63
2022-12-09T21:49:11.882Z,40.73
2022-12-09T21:51:39.952Z,39.03
2022-12-09T21:54:09.365Z,38.20
2022-12-09T21:56:37.497Z,37.73
2022-12-09T21:59:07.448Z,36.33
2022-12-09T22:01:40.264Z,37.73
2022-12-09T22:04:10.791Z,36.00
2022-12-09T22:06:39.970Z,37.07
2022-12-09T22:09:09.749Z,35.83
2022-12-09T22:11:39.563Z,34.50
2022-12-09T22:14:09.149Z,34.70
2022-12-09T22:16:39.853Z,35.20
2022-12-09T22:19:09.318Z,35.07
2022-12-09T22:21:37.539Z,35.13
2022-12-09T22:24:08.064Z,35.40
2022-12-09T22:26:37.561Z,34.50
2022-12-09T22:29:06.661Z,36.63
2022-12-09T22:31:36.619Z,34.40
2022-12-09T22:34:06.639Z,33.93
2022-12-09T22:36:37.077Z,33.60
2022-12-09T22:39:06.904Z,35.30
2022-12-09T22:41:35.644Z,34.00
2022-12-09T22:44:06.003Z,33.47
2022-12-09T22:46:35.237Z,34.30
2022-12-09T22:49:05.014Z,33.60
2022-12-09T22:51:34.758Z,34.20
2022-12-09T22:54:05.358Z,33.83
2022-12-09T22:56:34.129Z,34.47
2022-12-09T22:59:02.391Z,34.10
2022-12-09T23:01:35.599Z,34.27
2022-12-09T23:04:04.703Z,34.10
2022-12-09T23:06:32.744Z,33.60
2022-12-09T23:09:00.749Z,34.10
2022-12-09T23:11:29.915Z,33.83
2022-12-09T23:14:00.545Z,33.77
2022-12-09T23:16:28.973Z,33.83
2022-12-09T23:18:59.681Z,33.63
2022-12-09T23:21:30.244Z,33.03
2022-12-09T23:24:00.214Z,34.03
2022-12-09T23:26:30.941Z,32.93
2022-12-09T23:29:01.929Z,33.17
2022-12-09T23:31:32.847Z,32.90
2022-12-09T23:34:04.169Z,33.47
2022-12-09T23:36:34.501Z,39.30
2022-12-09T23:39:04.741Z,33.50
2022-12-09T23:41:32.728Z,32.47
2022-12-09T23:44:00.697Z,33.07
2022-12-09T23:46:30.539Z,32.47
2022-12-09T23:48:58.684Z,32.70
2022-12-09T23:51:30.348Z,32.47
2022-12-09T23:54:00.279Z,32.07
2022-12-09T23:56:30.137Z,32.13
2022-12-09T23:59:00.212Z,31.77
